2004 CELA (2003338S09065)


On this page: IBTrACS data - Map and Plots - Positions - Intensities - Original source data

Summary

Start Dec 4
End Dec 22
Basin SI
LMI 65 kt
Sources jtwc_sh
reunion
neumann
In WMO? Yes
Previous storm 2003 LUPIT (WP)
Previous in basin 2004 BENI (SI)
Concurrent storms 2004 CELA (SI)
2003 ODETTE (NA)
2004 JANA (SI)
2003 PETER (NA)
2003 MISSING (NI)
2004 DEBBIE (SP)
Next in basin 2004 JANA (SI)
Next storm 2003 ODETTE (NA)

top of page IBTrACS Data: File Access

Image of storm

top of page Plots:

Map of storm track will not appear if FTP is down
Time series of cyclone Maximum Sustained Wind will not appear if FTP is down
Time series of cyclone Minimum Central Pressure will not appear if FTP is down

top of page Track Data:Position

jtwc_sh reunion neumann
Date Lat Lon Lat Lon Lat Lon
2003-12-04 00:00:00 -9.3 64.6 -9.3 64.6
2003-12-04 06:00:00 -10.0 64.5 -9.6 65.2 -10.0 64.5
2003-12-04 12:00:00 -10.7 64.3 -9.9 65.0 -10.7 64.3
2003-12-04 18:00:00 -11.4 64.1 -10.6 64.1 -11.4 64.1
2003-12-05 00:00:00 -11.9 63.5 -11.2 63.1 -11.9 63.5
2003-12-05 06:00:00 -11.9 62.6 -11.4 62.4 -11.9 62.6
2003-12-05 12:00:00 -11.6 61.9 -11.5 61.9 -11.6 61.9
2003-12-05 18:00:00 -11.7 61.3 -11.8 61.3 -11.7 61.3
2003-12-06 00:00:00 -11.8 60.8 -11.9 60.8 -11.8 60.8
2003-12-06 06:00:00 -11.9 60.3 -11.9 60.5 -11.9 60.3
2003-12-06 12:00:00 -12.2 59.8 -12.0 60.1 -12.2 59.8
2003-12-06 18:00:00 -12.6 59.2 -12.3 59.4 -12.6 59.2
2003-12-07 00:00:00 -12.9 58.6 -12.6 58.7 -12.9 58.6
2003-12-07 06:00:00 -13.1 57.9 -12.9 58.0 -13.1 57.9
2003-12-07 12:00:00 -13.4 57.4 -13.2 57.5 -13.4 57.4
2003-12-07 18:00:00 -13.6 56.7 -13.6 56.8 -13.6 56.7
2003-12-08 00:00:00 -13.7 55.8 -13.8 55.7 -13.7 55.8
2003-12-08 06:00:00 -13.5 54.9 -13.6 54.8 -13.5 54.9
2003-12-08 12:00:00 -13.4 54.0 -13.4 53.8 -13.4 54.0
2003-12-08 18:00:00 -13.3 53.2 -13.3 53.0 -13.3 53.2
2003-12-09 00:00:00 -13.2 52.3 -13.1 52.1 -13.2 52.3
2003-12-09 06:00:00 -13.2 51.4 -12.9 51.1 -13.2 51.4
2003-12-09 12:00:00 -13.2 50.7 -13.1 50.5 -13.2 50.7
2003-12-09 18:00:00 -13.2 49.8 -13.3 49.6 -13.2 49.8
2003-12-10 00:00:00 -13.3 48.5 -13.8 48.1 -13.3 48.5
jtwc_sh reunion neumann
2003-12-10 06:00:00 -14.0 47.0 -14.6 46.6 -14.0 47.0
2003-12-10 12:00:00 -15.0 45.6 -15.1 45.8 -15.0 45.6
2003-12-10 18:00:00 -15.3 44.7 -15.5 45.0 -15.3 44.7
2003-12-11 00:00:00 -15.4 44.4 -15.9 44.3 -15.4 44.4
2003-12-11 06:00:00 -15.5 44.2 -16.0 44.2 -15.5 44.2
2003-12-11 12:00:00 -15.6 44.1 -15.8 44.2 -15.6 44.1
2003-12-11 18:00:00 -15.7 44.0 -15.6 44.2 -15.7 44.0
2003-12-12 00:00:00 -15.8 43.9 -15.9 44.3 -15.8 43.9
2003-12-12 06:00:00 -16.0 44.0 -16.3 44.3 -16.0 44.0
2003-12-12 12:00:00 -16.2 44.0 -16.5 44.1 -16.2 44.0
2003-12-12 18:00:00 -16.3 43.8 -16.4 43.7 -16.3 43.8
2003-12-13 00:00:00 -16.2 43.5 -16.3 43.3 -16.2 43.5
2003-12-13 06:00:00 -16.1 43.2 -16.1 42.8 -16.1 43.2
2003-12-13 12:00:00 -16.1 42.8 -16.2 42.8 -16.1 42.8
2003-12-13 18:00:00 -16.3 42.4 -16.5 42.7 -16.3 42.4
2003-12-14 00:00:00 -16.6 42.1 -16.7 42.1 -16.6 42.1
2003-12-14 06:00:00 -17.1 41.9 -17.0 41.9 -17.1 41.9
2003-12-14 12:00:00 -17.7 41.9 -17.8 42.0 -17.7 41.9
2003-12-14 18:00:00 -18.1 41.5 -18.5 41.5 -18.1 41.5
2003-12-15 00:00:00 -18.8 41.1 -19.3 41.4 -18.8 41.1
2003-12-15 06:00:00 -19.6 41.1 -20.0 41.2 -19.6 41.1
2003-12-15 12:00:00 -20.1 41.2 -20.2 41.2 -20.1 41.2
2003-12-15 18:00:00 -20.4 41.3 -20.4 41.8 -20.4 41.3
2003-12-16 00:00:00 -20.6 41.4 -20.9 41.6 -20.6 41.4
jtwc_sh reunion neumann
2003-12-16 06:00:00 -20.7 41.6 -20.8 41.7 -20.7 41.6
2003-12-16 12:00:00 -20.9 41.7 -20.9 41.7 -20.9 41.7
2003-12-16 18:00:00 -21.1 41.6 -21.0 41.7 -21.1 41.6
2003-12-17 00:00:00 -21.2 41.4 -21.2 41.4 -21.2 41.4
2003-12-17 06:00:00 -21.4 41.0 -21.7 40.9 -21.4 41.0
2003-12-17 12:00:00 -22.3 40.3 -22.5 40.2 -22.3 40.3
2003-12-17 18:00:00 -23.1 39.8 -23.2 39.6 -23.1 39.8
2003-12-18 00:00:00 -23.6 39.3 -23.6 39.2 -23.6 39.3
2003-12-18 06:00:00 -23.9 39.1 -23.9 39.0 -23.9 39.1
2003-12-18 12:00:00 -24.3 39.1 -24.4 39.3 -24.3 39.1
2003-12-18 18:00:00 -24.6 39.6 -24.5 39.9 -24.6 39.6
2003-12-19 00:00:00 -24.8 40.4 -24.6 40.7 -24.8 40.4
2003-12-19 06:00:00 -25.0 41.3 -24.8 41.3 -25.0 41.3
2003-12-19 12:00:00 -25.5 42.2 -25.6 42.3 -25.5 42.2
2003-12-19 18:00:00 -26.2 42.8 -26.2 43.0 -26.2 42.8
2003-12-20 00:00:00 -27.1 42.8 -26.9 42.7 -27.1 42.8
2003-12-20 06:00:00 -27.9 42.3 -27.8 42.4 -27.9 42.3
2003-12-20 12:00:00 -29.0 42.0 -29.2 42.1 -29.0 42.0
2003-12-20 18:00:00 -30.8 41.9 -31.0 41.9 -30.8 41.9
2003-12-21 00:00:00 -32.6 42.3 -33.0 42.3 -32.6 42.3
2003-12-21 06:00:00 -34.2 44.0 -34.5 44.1 -34.2 44.0
2003-12-21 12:00:00 -36.0 46.6 -36.2 47.3 -36.0 46.6
2003-12-21 18:00:00 -38.2 51.2 -37.9 51.2 -38.2 51.2
2003-12-22 00:00:00 -40.3 57.2

top of pageTrack Data:Intensity

jtwc_sh reunion neumann
Date Wind Pres Wind Pres Wind Pres
2003-12-04 00:00:00 15. 1006. 15.
2003-12-04 06:00:00 15. 1006. 20. 1008. 15.
2003-12-04 12:00:00 15. 1006. 20. 1006. 15.
2003-12-04 18:00:00 15. 1006. 25. 1005. 15.
2003-12-05 00:00:00 20. 1003. 25. 1003. 20.
2003-12-05 06:00:00 25. 1002. 30. 1000. 25.
2003-12-05 12:00:00 25. 1002. 30. 1000. 25.
2003-12-05 18:00:00 30. 1000. 30. 999. 30.
2003-12-06 00:00:00 30. 1000. 30. 999. 30.
2003-12-06 06:00:00 30. 1000. 30. 1000. 30.
2003-12-06 12:00:00 30. 1000. 30. 1000. 30.
2003-12-06 18:00:00 30. 1000. 30. 1000. 30.
2003-12-07 00:00:00 35. 997. 30. 999. 35.
2003-12-07 06:00:00 35. 997. 30. 999. 35.
2003-12-07 12:00:00 35. 997. 30. 999. 35.
2003-12-07 18:00:00 35. 997. 35. 997. 35.
2003-12-08 00:00:00 40. 994. 40. 995. 40.
2003-12-08 06:00:00 45. 991. 40. 995. 45.
2003-12-08 12:00:00 45. 991. 40. 995. 45.
2003-12-08 18:00:00 45. 991. 40. 995. 45.
2003-12-09 00:00:00 45. 991. 40. 995. 45.
2003-12-09 06:00:00 45. 987. 40. 995. 45.
2003-12-09 12:00:00 40. 994. 40. 995. 40.
2003-12-09 18:00:00 35. 997. 30. 1000. 35.
2003-12-10 00:00:00 35. 997. 20. 1005. 35.
jtwc_sh reunion neumann
2003-12-10 06:00:00 30. 1000. 20. 1006. 30.
2003-12-10 12:00:00 25. 1002. 20. 1005. 25.
2003-12-10 18:00:00 25. 1002. 20. 1005. 25.
2003-12-11 00:00:00 35. 997. 20. 1004. 35.
2003-12-11 06:00:00 35. 997. 25. 1003. 35.
2003-12-11 12:00:00 35. 997. 25. 1002. 35.
2003-12-11 18:00:00 40. 994. 25. 1002. 40.
2003-12-12 00:00:00 40. 994. 25. 1002. 40.
2003-12-12 06:00:00 40. 994. 25. 1002. 40.
2003-12-12 12:00:00 35. 997. 25. 1002. 35.
2003-12-12 18:00:00 35. 997. 25. 1002. 35.
2003-12-13 00:00:00 35. 997. 25. 1002. 35.
2003-12-13 06:00:00 35. 997. 25. 1001. 35.
2003-12-13 12:00:00 35. 997. 25. 1001. 35.
2003-12-13 18:00:00 35. 997. 27. 1000. 35.
2003-12-14 00:00:00 35. 997. 30. 999. 35.
2003-12-14 06:00:00 35. 997. 35. 997. 35.
2003-12-14 12:00:00 35. 997. 40. 994. 35.
2003-12-14 18:00:00 35. 997. 40. 994. 35.
2003-12-15 00:00:00 35. 997. 40. 993. 35.
2003-12-15 06:00:00 35. 997. 45. 990. 35.
2003-12-15 12:00:00 35. 997. 50. 987. 35.
2003-12-15 18:00:00 45. 994. 55. 985. 45.
2003-12-16 00:00:00 55. 984. 55. 985. 55.
jtwc_sh reunion neumann
2003-12-16 06:00:00 65. 976. 60. 980. 65.
2003-12-16 12:00:00 65. 976. 65. 975. 65.
2003-12-16 18:00:00 65. 976. 65. 975. 65.
2003-12-17 00:00:00 60. 980. 65. 975. 60.
2003-12-17 06:00:00 55. 984. 60. 980. 55.
2003-12-17 12:00:00 55. 984. 60. 985. 55.
2003-12-17 18:00:00 55. 984. 60. 985. 55.
2003-12-18 00:00:00 55. 984. 60. 980. 55.
2003-12-18 06:00:00 55. 984. 60. 980. 55.
2003-12-18 12:00:00 55. 984. 65. 975. 55.
2003-12-18 18:00:00 55. 984. 65. 975. 55.
2003-12-19 00:00:00 55. 984. 65. 975. 55.
2003-12-19 06:00:00 60. 980. 60. 980. 60.
2003-12-19 12:00:00 65. 976. 65. 975. 65.
2003-12-19 18:00:00 65. 976. 65. 975. 65.
2003-12-20 00:00:00 65. 976. 65. 975. 65.
2003-12-20 06:00:00 65. 976. 60. 980. 65.
2003-12-20 12:00:00 60. 980. 55. 985. 60.
2003-12-20 18:00:00 50. 987. 55. 985. 50.
2003-12-21 00:00:00 45. 991. 50. 987. 45.
2003-12-21 06:00:00 45. 991. 50. 987. 45.
2003-12-21 12:00:00 45. 991. 55. 985. 45.
2003-12-21 18:00:00 45. 991. 55. 983. 45.
2003-12-22 00:00:00 55. 983.

top of page Links to source data

Source Source file Format
jtwc_sh bsh032004.txt ATCF
reunion Best-Tracks-current.txt:Line=92:CELA WMO (old format)
neumann tracks.sh:Storm=1282:CELA:BSH032004:JTWC HURDAT